Terminal Aerodrome Forecast
Issued by NWS Lake Charles, LA

Current Version | Previous Version | Text Only | Print | Product List | Glossary On
Versions: 1 2 3 4 5 6 7 8 9 10 11 12 13 14 15 16 17 18 19 20
344
FTUS44 KLCH 191123
TAFLCH
TAF
KLCH 191123Z 1912/2012 13005KT P6SM OVC004
      TEMPO 1912/1914 2SM BR OVC009
     FM191400 13010KT 4SM BR BKN012
     FM191700 15014G20KT P6SM BKN050
     FM200100 13010KT 5SM BR OVC004=

USA.gov is the U.S. government's official web portal to all federal, state and local government web resources and services.